createdAt,value
2017-10-22T00:00:03.920Z,10.99
2017-10-22T00:00:08.144Z,11.02
2017-10-22T00:00:12.091Z,10.99
2017-10-22T00:00:16.040Z,11.01
2017-10-22T00:00:19.986Z,11.01
2017-10-22T00:00:23.944Z,10.98
2017-10-22T00:00:28.153Z,10.95
2017-10-22T00:00:32.494Z,11.02
2017-10-22T00:00:36.711Z,10.98
2017-10-22T00:00:40.940Z,10.95
2017-10-22T00:00:44.889Z,11.01
2017-10-22T00:00:48.568Z,11.02
2017-10-22T00:00:53.063Z,10.99
2017-10-22T00:00:57.282Z,11.01
2017-10-22T00:01:01.361Z,10.98
2017-10-22T00:01:05.308Z,10.99
2017-10-22T00:01:09.117Z,10.91
2017-10-22T00:01:13.463Z,11.01
2017-10-22T00:01:17.421Z,10.98
2017-10-22T00:01:21.500Z,10.95
2017-10-22T00:01:25.453Z,10.93
2017-10-22T00:01:29.264Z,10.91
2017-10-22T00:01:33.084Z,10.88
2017-10-22T00:01:37.035Z,10.9
2017-10-22T00:01:40.983Z,11.02
2017-10-22T00:01:44.927Z,10.93
2017-10-22T00:01:48.745Z,10.94
2017-10-22T00:01:52.696Z,10.93
2017-10-22T00:01:56.653Z,10.98
2017-10-22T00:02:00.604Z,10.94
2017-10-22T00:02:04.690Z,10.95
2017-10-22T00:02:08.633Z,10.93
2017-10-22T00:02:12.843Z,10.9
2017-10-22T00:02:16.926Z,10.93
2017-10-22T00:02:21.006Z,10.94
2017-10-22T00:02:25.090Z,10.9
2017-10-22T00:02:29.039Z,10.99
2017-10-22T00:02:33.001Z,10.95
2017-10-22T00:02:37.088Z,10.95
2017-10-22T00:02:40.902Z,10.99
2017-10-22T00:02:44.713Z,11.01
2017-10-22T00:02:48.787Z,10.99
2017-10-22T00:02:52.996Z,10.88
2017-10-22T00:02:56.944Z,10.94
2017-10-22T00:03:01.158Z,11.01
2017-10-22T00:03:05.049Z,10.91
2017-10-22T00:03:09.003Z,10.95
2017-10-22T00:03:12.955Z,10.95
2017-10-22T00:03:17.032Z,10.88
2017-10-22T00:03:20.715Z,10.94
2017-10-22T00:03:24.664Z,10.95
2017-10-22T00:03:28.904Z,10.99
2017-10-22T00:03:32.990Z,10.91
2017-10-22T00:03:37.341Z,10.91
2017-10-22T00:03:41.295Z,10.98
2017-10-22T00:03:45.373Z,10.93
2017-10-22T00:03:49.325Z,10.95
2017-10-22T00:03:53.679Z,11.01
2017-10-22T00:03:57.630Z,10.95
2017-10-22T00:04:01.570Z,10.98
2017-10-22T00:04:05.518Z,10.99
2017-10-22T00:04:09.467Z,10.98
2017-10-22T00:04:13.546Z,10.95
2017-10-22T00:04:17.618Z,10.98
2017-10-22T00:04:21.707Z,11.01
2017-10-22T00:04:25.653Z,10.94
2017-10-22T00:04:29.604Z,10.91
2017-10-22T00:04:33.687Z,10.95
2017-10-22T00:04:37.908Z,10.99
2017-10-22T00:04:42.251Z,11.01
2017-10-22T00:04:46.326Z,10.93
2017-10-22T00:04:50.280Z,11.03
2017-10-22T00:04:54.098Z,10.99
2017-10-22T00:04:58.054Z,10.87
2017-10-22T00:05:02.522Z,10.94
2017-10-22T00:05:06.879Z,10.98
2017-10-22T00:05:10.957Z,10.94
2017-10-22T00:05:15.162Z,10.93
2017-10-22T00:05:19.128Z,10.99
2017-10-22T00:05:23.205Z,10.95
2017-10-22T00:05:27.155Z,10.98
2017-10-22T00:05:31.491Z,10.94
2017-10-22T00:05:35.441Z,10.95
2017-10-22T00:05:39.516Z,10.95
2017-10-22T00:05:43.732Z,11.01
2017-10-22T00:05:47.545Z,10.95
2017-10-22T00:05:51.644Z,10.99
2017-10-22T00:05:55.852Z,10.99
2017-10-22T00:05:59.804Z,10.98
2017-10-22T00:06:04.021Z,10.88
2017-10-22T00:06:08.242Z,10.98
2017-10-22T00:06:12.320Z,10.93
2017-10-22T00:06:16.270Z,10.95
2017-10-22T00:06:20.351Z,10.88
2017-10-22T00:06:24.297Z,10.94
2017-10-22T00:06:28.116Z,10.91
2017-10-22T00:06:32.068Z,10.88
2017-10-22T00:06:36.150Z,10.9
2017-10-22T00:06:40.110Z,10.94
2017-10-22T00:06:44.057Z,10.91
2017-10-22T00:06:48.275Z,10.9
2017-10-22T00:06:52.482Z,10.94
2017-10-22T00:06:56.692Z,10.9
2017-10-22T00:07:00.374Z,10.91
2017-10-22T00:07:04.417Z,10.93
2017-10-22T00:07:08.516Z,10.94
2017-10-22T00:07:12.469Z,10.87
2017-10-22T00:07:16.413Z,10.87
2017-10-22T00:07:20.226Z,10.93
2017-10-22T00:07:24.307Z,10.98
2017-10-22T00:07:28.125Z,10.94
2017-10-22T00:07:31.945Z,10.98
2017-10-22T00:07:35.757Z,10.94
2017-10-22T00:07:39.580Z,10.94
2017-10-22T00:07:43.785Z,10.91
2017-10-22T00:07:47.600Z,10.91
2017-10-22T00:07:51.814Z,11.02
2017-10-22T00:07:56.167Z,11.01
2017-10-22T00:08:00.249Z,10.95
2017-10-22T00:08:03.937Z,11.01
2017-10-22T00:08:08.302Z,10.99
2017-10-22T00:08:12.116Z,10.94
2017-10-22T00:08:16.329Z,10.94
2017-10-22T00:08:20.415Z,10.99
2017-10-22T00:08:24.364Z,10.95
2017-10-22T00:08:28.313Z,11.02
2017-10-22T00:08:32.393Z,10.95
2017-10-22T00:08:36.213Z,10.95
2017-10-22T00:08:40.292Z,10.99
2017-10-22T00:08:44.371Z,11.01
2017-10-22T00:08:48.462Z,11.01
2017-10-22T00:08:52.410Z,10.95
2017-10-22T00:08:56.489Z,10.94
2017-10-22T00:09:00.697Z,10.95
2017-10-22T00:09:04.983Z,10.95
2017-10-22T00:09:08.796Z,11.01
2017-10-22T00:09:12.612Z,10.9
2017-10-22T00:09:16.562Z,11.02
2017-10-22T00:09:20.671Z,10.95
2017-10-22T00:09:24.753Z,10.99
2017-10-22T00:09:28.846Z,10.99
2017-10-22T00:09:32.792Z,11.01
2017-10-22T00:09:36.606Z,11.11
2017-10-22T00:09:40.823Z,11.01
2017-10-22T00:09:45.040Z,10.99
2017-10-22T00:09:49.167Z,11.01
2017-10-22T00:09:53.243Z,11.09
2017-10-22T00:09:57.200Z,11.01
2017-10-22T00:10:01.431Z,11.02
2017-10-22T00:10:05.567Z,11.09
2017-10-22T00:10:09.913Z,10.99
2017-10-22T00:10:13.998Z,11.01
2017-10-22T00:10:17.953Z,11.09
2017-10-22T00:10:22.022Z,11.01
2017-10-22T00:10:26.233Z,10.98
2017-10-22T00:10:30.309Z,11.03
2017-10-22T00:10:34.263Z,11.01
2017-10-22T00:10:38.471Z,10.95
2017-10-22T00:10:42.837Z,11.05
2017-10-22T00:10:46.773Z,11.01
2017-10-22T00:10:51.004Z,10.99
2017-10-22T00:10:55.104Z,11.01
2017-10-22T00:10:59.312Z,10.94
2017-10-22T00:11:03.901Z,10.95
2017-10-22T00:11:08.136Z,10.95
2017-10-22T00:11:12.342Z,11.01
2017-10-22T00:11:16.550Z,11.02
2017-10-22T00:11:20.635Z,11.01
2017-10-22T00:11:24.866Z,10.99
2017-10-22T00:11:28.680Z,10.99
2017-10-22T00:11:32.621Z,11.01
2017-10-22T00:11:36.842Z,10.94
2017-10-22T00:11:40.922Z,10.98
2017-10-22T00:11:45.011Z,10.99
2017-10-22T00:11:49.091Z,10.95
2017-10-22T00:11:53.062Z,11.02
2017-10-22T00:11:57.141Z,10.98
2017-10-22T00:12:01.095Z,10.95
2017-10-22T00:12:05.231Z,10.98
2017-10-22T00:12:09.174Z,10.95
2017-10-22T00:12:13.387Z,10.95
2017-10-22T00:12:17.069Z,10.98
2017-10-22T00:12:21.029Z,10.94
2017-10-22T00:12:24.845Z,11.02
2017-10-22T00:12:29.053Z,10.9
2017-10-22T00:12:32.903Z,10.98
2017-10-22T00:12:36.825Z,10.9
2017-10-22T00:12:41.302Z,10.91
2017-10-22T00:12:45.114Z,11.01
2017-10-22T00:12:49.058Z,10.98
2017-10-22T00:12:53.141Z,10.88
2017-10-22T00:12:56.960Z,11.02
2017-10-22T00:13:01.303Z,10.95
2017-10-22T00:13:05.554Z,10.98
2017-10-22T00:13:09.643Z,10.98
2017-10-22T00:13:13.453Z,10.94
2017-10-22T00:13:17.674Z,10.98
2017-10-22T00:13:21.889Z,10.94
2017-10-22T00:13:25.838Z,10.95
2017-10-22T00:13:29.780Z,10.88
2017-10-22T00:13:33.465Z,10.94
2017-10-22T00:13:37.288Z,10.94
2017-10-22T00:13:41.235Z,10.9
2017-10-22T00:13:45.451Z,10.99
2017-10-22T00:13:49.406Z,10.9
2017-10-22T00:13:53.761Z,10.98
2017-10-22T00:13:57.849Z,10.88
2017-10-22T00:14:01.814Z,11.03
2017-10-22T00:14:05.910Z,10.99
2017-10-22T00:14:10.120Z,10.98
2017-10-22T00:14:14.202Z,10.94
2017-10-22T00:14:18.152Z,10.95
2017-10-22T00:14:22.227Z,10.91
2017-10-22T00:14:26.046Z,10.94
2017-10-22T00:14:30.127Z,10.94
2017-10-22T00:14:34.075Z,10.94
2017-10-22T00:14:38.156Z,10.91
2017-10-22T00:14:42.109Z,10.99
2017-10-22T00:14:46.464Z,11.01
2017-10-22T00:14:50.671Z,10.91
2017-10-22T00:14:54.756Z,10.99
2017-10-22T00:14:58.572Z,10.95
2017-10-22T00:15:02.646Z,10.88
2017-10-22T00:15:06.456Z,10.94
2017-10-22T00:15:10.683Z,10.98
2017-10-22T00:15:14.764Z,10.93
2017-10-22T00:15:18.969Z,10.94
2017-10-22T00:15:22.917Z,10.99
2017-10-22T00:15:26.729Z,10.88
2017-10-22T00:15:30.947Z,10.98
2017-10-22T00:15:35.160Z,10.99
2017-10-22T00:15:39.382Z,10.87
2017-10-22T00:15:43.628Z,10.98
2017-10-22T00:15:47.844Z,10.91
2017-10-22T00:15:51.789Z,10.9
2017-10-22T00:15:55.996Z,10.95
2017-10-22T00:15:59.948Z,10.94
2017-10-22T00:16:03.990Z,10.91
2017-10-22T00:16:07.945Z,10.86
2017-10-22T00:16:11.886Z,10.91
2017-10-22T00:16:15.835Z,10.99
2017-10-22T00:16:19.786Z,10.95
2017-10-22T00:16:23.866Z,11.02
2017-10-22T00:16:27.678Z,10.88
2017-10-22T00:16:31.757Z,10.91
2017-10-22T00:16:35.584Z,10.98
2017-10-22T00:16:39.538Z,10.84
2017-10-22T00:16:43.603Z,10.9
2017-10-22T00:16:47.552Z,10.93
2017-10-22T00:16:51.506Z,10.94
2017-10-22T00:16:55.343Z,10.93
2017-10-22T00:16:59.290Z,10.9
2017-10-22T00:17:03.512Z,10.84
2017-10-22T00:17:07.605Z,10.88
2017-10-22T00:17:11.682Z,10.87
2017-10-22T00:17:15.889Z,10.81
2017-10-22T00:17:20.114Z,10.95
2017-10-22T00:17:24.203Z,10.88
2017-10-22T00:17:28.305Z,10.95
2017-10-22T00:17:32.520Z,10.91
2017-10-22T00:17:36.614Z,10.95
2017-10-22T00:17:40.564Z,10.88
2017-10-22T00:17:44.516Z,10.8
2017-10-22T00:17:48.469Z,10.9
2017-10-22T00:17:52.425Z,10.95
2017-10-22T00:17:56.238Z,10.84
2017-10-22T00:18:00.330Z,10.88
2017-10-22T00:18:04.509Z,10.98
2017-10-22T00:18:08.723Z,10.98
2017-10-22T00:18:12.803Z,10.83
2017-10-22T00:18:16.617Z,10.8
2017-10-22T00:18:20.695Z,10.95
2017-10-22T00:18:24.786Z,10.87
2017-10-22T00:18:28.866Z,10.87
2017-10-22T00:18:33.201Z,10.98
2017-10-22T00:18:37.163Z,10.88
2017-10-22T00:18:40.843Z,10.81
2017-10-22T00:18:45.186Z,10.84
2017-10-22T00:18:49.268Z,10.83
2017-10-22T00:18:53.344Z,10.94
2017-10-22T00:18:57.453Z,10.9
2017-10-22T00:19:01.751Z,10.91
2017-10-22T00:19:05.965Z,10.91
2017-10-22T00:19:09.927Z,10.88
2017-10-22T00:19:13.997Z,10.95
2017-10-22T00:19:18.335Z,10.9
2017-10-22T00:19:22.159Z,10.86
2017-10-22T00:19:26.239Z,10.84
2017-10-22T00:19:30.188Z,10.86
2017-10-22T00:19:34.129Z,10.81
2017-10-22T00:19:38.076Z,10.91
2017-10-22T00:19:41.895Z,10.86
2017-10-22T00:19:45.966Z,10.9
2017-10-22T00:19:50.042Z,10.83
2017-10-22T00:19:54.133Z,10.87
2017-10-22T00:19:58.081Z,10.83
2017-10-22T00:20:01.895Z,10.95
2017-10-22T00:20:05.708Z,10.81
2017-10-22T00:20:09.394Z,10.9
2017-10-22T00:20:13.477Z,10.78
2017-10-22T00:20:17.425Z,10.84
2017-10-22T00:20:21.243Z,10.83
2017-10-22T00:20:24.925Z,10.8
2017-10-22T00:20:29.006Z,10.87
2017-10-22T00:20:32.687Z,10.9
2017-10-22T00:20:36.500Z,10.83
2017-10-22T00:20:40.591Z,10.91
2017-10-22T00:20:44.411Z,10.86
2017-10-22T00:20:48.497Z,10.86
2017-10-22T00:20:52.446Z,10.91
2017-10-22T00:20:56.260Z,10.9
2017-10-22T00:21:00.332Z,10.83
2017-10-22T00:21:04.284Z,10.84
2017-10-22T00:21:08.385Z,10.81
2017-10-22T00:21:12.464Z,10.93
2017-10-22T00:21:16.690Z,10.87
2017-10-22T00:21:20.915Z,10.93
2017-10-22T00:21:24.999Z,10.83
2017-10-22T00:21:28.816Z,10.8
2017-10-22T00:21:32.783Z,10.78
2017-10-22T00:21:36.710Z,10.81
2017-10-22T00:21:40.659Z,10.84
2017-10-22T00:21:45.016Z,10.8
2017-10-22T00:21:49.103Z,10.94
2017-10-22T00:21:53.315Z,10.9
2017-10-22T00:21:57.136Z,10.78
2017-10-22T00:22:01.505Z,10.9
2017-10-22T00:22:05.851Z,10.87
2017-10-22T00:22:09.804Z,10.86
2017-10-22T00:22:14.015Z,10.81
2017-10-22T00:22:17.828Z,10.83
2017-10-22T00:22:22.038Z,10.9
2017-10-22T00:22:25.979Z,10.88
2017-10-22T00:23:02.048Z,10.86
2017-10-22T00:23:05.994Z,10.9
2017-10-22T00:23:09.934Z,10.83
2017-10-22T00:23:14.017Z,10.94
2017-10-22T00:23:18.229Z,10.83
2017-10-22T00:23:22.042Z,10.91
2017-10-22T00:23:26.124Z,10.87
2017-10-22T00:23:30.071Z,10.87
2017-10-22T00:23:34.291Z,10.83
2017-10-22T00:23:38.242Z,10.88
2017-10-22T00:23:42.328Z,10.83
2017-10-22T00:23:46.409Z,10.91
2017-10-22T00:23:50.354Z,10.9
2017-10-22T00:23:54.565Z,10.88
2017-10-22T00:23:58.517Z,10.84
2017-10-22T00:24:02.723Z,10.91
2017-10-22T00:24:06.675Z,10.88
2017-10-22T00:24:10.494Z,10.87
2017-10-22T00:24:14.614Z,10.91
2017-10-22T00:24:18.552Z,10.78
2017-10-22T00:24:22.507Z,10.83
2017-10-22T00:24:26.596Z,10.86
2017-10-22T00:24:30.433Z,10.93
2017-10-22T00:24:34.382Z,10.94
2017-10-22T00:24:38.335Z,10.8
2017-10-22T00:24:42.146Z,10.88
2017-10-22T00:24:46.224Z,10.9
2017-10-22T00:24:50.170Z,10.91
2017-10-22T00:24:53.989Z,10.86
2017-10-22T00:24:57.963Z,10.81
2017-10-22T00:25:02.557Z,10.81
2017-10-22T00:25:06.769Z,10.84
2017-10-22T00:25:10.720Z,10.94
2017-10-22T00:25:14.799Z,10.87
2017-10-22T00:25:18.754Z,10.73
2017-10-22T00:25:22.703Z,10.88
2017-10-22T00:25:26.792Z,10.88
2017-10-22T00:25:31.126Z,10.86
2017-10-22T00:25:35.072Z,10.8
2017-10-22T00:25:39.164Z,10.83
2017-10-22T00:25:43.233Z,10.98
2017-10-22T00:25:47.176Z,10.69
2017-10-22T00:25:51.139Z,10.84
2017-10-22T00:25:55.365Z,10.83
2017-10-22T00:25:59.304Z,10.86
2017-10-22T00:26:03.399Z,10.76
2017-10-22T00:26:07.373Z,10.83
2017-10-22T00:26:11.586Z,10.87
2017-10-22T00:26:15.658Z,10.78
2017-10-22T00:26:19.886Z,10.88
2017-10-22T00:26:24.231Z,10.87
2017-10-22T00:26:28.439Z,10.91
2017-10-22T00:26:32.533Z,10.86
2017-10-22T00:26:36.619Z,10.88
2017-10-22T00:26:40.965Z,10.87
2017-10-22T00:26:45.051Z,10.84
2017-10-22T00:26:49.013Z,10.83
2017-10-22T00:26:53.095Z,10.84
2017-10-22T00:26:57.173Z,10.9
2017-10-22T00:27:01.251Z,10.87
2017-10-22T00:27:05.137Z,10.84
2017-10-22T00:27:09.355Z,10.86
2017-10-22T00:27:13.301Z,10.88
2017-10-22T00:27:17.386Z,10.76
2017-10-22T00:27:21.205Z,10.8
2017-10-22T00:27:25.143Z,10.86
2017-10-22T00:27:29.099Z,10.81
2017-10-22T00:27:33.062Z,10.83
2017-10-22T00:27:37.140Z,10.83
2017-10-22T00:27:41.224Z,10.83
2017-10-22T00:27:45.037Z,10.88
2017-10-22T00:27:48.849Z,10.84
2017-10-22T00:27:53.060Z,10.93
2017-10-22T00:27:57.151Z,10.91
2017-10-22T00:28:01.093Z,10.78
2017-10-22T00:28:05.426Z,10.83
2017-10-22T00:28:09.241Z,10.87
2017-10-22T00:28:13.325Z,10.83
2017-10-22T00:28:17.269Z,10.83
2017-10-22T00:28:21.221Z,10.84
2017-10-22T00:28:25.177Z,10.88
2017-10-22T00:28:29.257Z,10.91
2017-10-22T00:28:33.333Z,10.84
2017-10-22T00:28:37.416Z,10.84
2017-10-22T00:28:41.363Z,10.76
2017-10-22T00:28:45.451Z,10.75
2017-10-22T00:28:49.666Z,10.83
2017-10-22T00:28:53.614Z,10.84
2017-10-22T00:28:57.565Z,10.81
2017-10-22T00:29:01.921Z,10.87
2017-10-22T00:29:06.003Z,10.83
2017-10-22T00:29:09.816Z,10.78
2017-10-22T00:29:13.919Z,10.84
2017-10-22T00:29:18.265Z,10.84
2017-10-22T00:29:22.472Z,10.75
2017-10-22T00:29:26.293Z,10.87
2017-10-22T00:29:30.493Z,10.83
2017-10-22T00:29:34.572Z,10.81
2017-10-22T00:29:38.387Z,10.83
2017-10-22T00:29:42.590Z,10.8
2017-10-22T00:29:46.413Z,10.87
2017-10-22T00:29:50.769Z,10.84
2017-10-22T00:29:54.853Z,10.87
2017-10-22T00:29:58.924Z,10.8
2017-10-22T00:30:02.875Z,10.83
2017-10-22T00:30:07.357Z,10.84
2017-10-22T00:30:11.298Z,10.87
2017-10-22T00:30:15.509Z,10.84
2017-10-22T00:30:19.595Z,10.8
2017-10-22T00:30:23.409Z,10.8
2017-10-22T00:30:27.361Z,10.83
2017-10-22T00:30:31.045Z,10.84
2017-10-22T00:30:34.990Z,10.75
2017-10-22T00:30:38.941Z,10.8
2017-10-22T00:30:42.889Z,10.78
2017-10-22T00:30:46.840Z,10.81
2017-10-22T00:30:50.923Z,10.81
2017-10-22T00:30:54.605Z,10.8
2017-10-22T00:30:58.824Z,10.86
2017-10-22T00:31:02.905Z,10.81
2017-10-22T00:31:06.850Z,10.86
2017-10-22T00:31:10.802Z,10.81
2017-10-22T00:31:14.640Z,10.83
2017-10-22T00:31:18.982Z,10.83
2017-10-22T00:31:22.926Z,10.84
2017-10-22T00:31:26.875Z,10.84
2017-10-22T00:31:31.100Z,10.83
2017-10-22T00:31:35.445Z,10.81
2017-10-22T00:31:39.393Z,10.78
2017-10-22T00:31:43.349Z,10.76
2017-10-22T00:31:47.428Z,10.83
2017-10-22T00:31:51.778Z,10.8
2017-10-22T00:31:55.603Z,10.81
2017-10-22T00:31:59.691Z,10.81
2017-10-22T00:32:03.777Z,10.84
2017-10-22T00:32:07.588Z,10.81
2017-10-22T00:32:11.546Z,10.81
2017-10-22T00:32:15.494Z,10.83
2017-10-22T00:32:19.719Z,10.8
2017-10-22T00:32:23.928Z,10.81
2017-10-22T00:32:28.012Z,10.81
2017-10-22T00:32:31.976Z,10.78
2017-10-22T00:32:36.055Z,10.83
2017-10-22T00:32:40.013Z,10.84
2017-10-22T00:32:44.103Z,10.83
2017-10-22T00:32:48.314Z,10.83
2017-10-22T00:32:52.265Z,10.8
2017-10-22T00:32:56.214Z,10.8
2017-10-22T00:33:00.311Z,10.81
2017-10-22T00:33:04.130Z,10.83
2017-10-22T00:33:08.224Z,10.75
2017-10-22T00:33:12.044Z,10.83
2017-10-22T00:33:16.272Z,10.84
2017-10-22T00:33:20.085Z,10.8
2017-10-22T00:33:24.164Z,10.83
2017-10-22T00:33:28.518Z,10.83
2017-10-22T00:33:32.727Z,10.84
2017-10-22T00:33:36.934Z,10.8
2017-10-22T00:33:40.899Z,10.83
2017-10-22T00:33:44.966Z,10.84
2017-10-22T00:33:49.181Z,10.84
2017-10-22T00:33:53.266Z,10.83
2017-10-22T00:33:57.251Z,10.83
2017-10-22T00:34:01.327Z,10.83
2017-10-22T00:34:05.273Z,10.8
2017-10-22T00:34:09.482Z,10.81
2017-10-22T00:34:13.560Z,10.81
2017-10-22T00:34:17.508Z,10.84
2017-10-22T00:34:21.455Z,10.78
2017-10-22T00:34:25.404Z,10.78
2017-10-22T00:34:29.223Z,10.81
2017-10-22T00:34:33.299Z,10.8
2017-10-22T00:34:37.251Z,10.8
2017-10-22T00:34:41.469Z,10.81
2017-10-22T00:34:45.285Z,10.76
2017-10-22T00:34:49.504Z,10.73
2017-10-22T00:34:53.190Z,10.76
2017-10-22T00:34:57.003Z,10.72
2017-10-22T00:35:01.088Z,10.73
2017-10-22T00:35:05.306Z,10.83
2017-10-22T00:35:09.272Z,10.84
2017-10-22T00:35:13.354Z,10.78
2017-10-22T00:35:17.428Z,10.84
2017-10-22T00:35:21.375Z,10.8
2017-10-22T00:35:25.322Z,10.83
2017-10-22T00:35:29.284Z,10.75
2017-10-22T00:35:33.102Z,10.8
2017-10-22T00:35:37.460Z,10.75
2017-10-22T00:35:41.672Z,10.75
2017-10-22T00:35:45.887Z,10.73
2017-10-22T00:35:49.837Z,10.78
2017-10-22T00:35:53.913Z,10.78
2017-10-22T00:35:58.002Z,10.73
2017-10-22T00:36:02.521Z,10.81
2017-10-22T00:36:06.466Z,10.78
2017-10-22T00:36:10.412Z,10.73
2017-10-22T00:36:14.098Z,10.78
2017-10-22T00:36:18.324Z,10.84
2017-10-22T00:36:22.279Z,10.73
2017-10-22T00:36:26.363Z,10.83
2017-10-22T00:36:30.580Z,10.78
2017-10-22T00:36:34.930Z,10.78
2017-10-22T00:36:38.882Z,10.78
2017-10-22T00:36:42.962Z,10.75
2017-10-22T00:36:46.643Z,10.76
2017-10-22T00:36:50.586Z,10.7
2017-10-22T00:36:54.671Z,10.73
2017-10-22T00:36:58.489Z,10.69
2017-10-22T00:37:02.323Z,10.78
2017-10-22T00:37:06.399Z,10.81
2017-10-22T00:37:10.755Z,10.8
2017-10-22T00:37:15.104Z,10.83
2017-10-22T00:37:19.050Z,10.73
2017-10-22T00:37:22.994Z,10.78
2017-10-22T00:37:26.945Z,10.8
2017-10-22T00:37:31.022Z,10.76
2017-10-22T00:37:34.835Z,10.75
2017-10-22T00:37:38.521Z,10.8
2017-10-22T00:37:42.472Z,10.76
2017-10-22T00:37:46.420Z,10.78
2017-10-22T00:37:50.760Z,10.76
2017-10-22T00:37:54.981Z,10.8
2017-10-22T00:37:59.071Z,10.84
2017-10-22T00:38:03.304Z,10.72
2017-10-22T00:38:07.672Z,10.76
2017-10-22T00:38:11.763Z,10.8
2017-10-22T00:38:15.832Z,10.78
2017-10-22T00:38:19.923Z,10.7
2017-10-22T00:38:24.054Z,10.84
2017-10-22T00:38:27.865Z,10.8
2017-10-22T00:38:31.944Z,10.7
2017-10-22T00:38:36.024Z,10.76
2017-10-22T00:38:39.840Z,10.73
2017-10-22T00:38:43.652Z,10.73
2017-10-22T00:38:48.004Z,10.78
2017-10-22T00:38:51.956Z,10.7
2017-10-22T00:38:56.028Z,10.75
2017-10-22T00:39:00.111Z,10.78
2017-10-22T00:39:04.483Z,10.84
2017-10-22T00:39:08.579Z,10.73
2017-10-22T00:39:12.790Z,10.7
2017-10-22T00:39:16.741Z,10.78
2017-10-22T00:39:20.970Z,10.7
2017-10-22T00:39:25.043Z,10.83
2017-10-22T00:39:29.262Z,10.76
2017-10-22T00:39:33.352Z,10.72
2017-10-22T00:39:37.584Z,10.72
2017-10-22T00:39:41.404Z,10.76
2017-10-22T00:39:45.750Z,10.76
2017-10-22T00:39:49.970Z,10.68
2017-10-22T00:39:54.198Z,10.68
2017-10-22T00:39:58.013Z,10.73
2017-10-22T00:40:02.096Z,10.7
2017-10-22T00:40:06.053Z,10.7
2017-10-22T00:40:10.270Z,10.84
2017-10-22T00:40:14.222Z,10.7
2017-10-22T00:40:18.299Z,10.72
2017-10-22T00:40:22.379Z,10.72
2017-10-22T00:40:26.332Z,10.76
2017-10-22T00:40:30.277Z,10.75
2017-10-22T00:40:34.363Z,10.76
2017-10-22T00:40:38.578Z,10.76
2017-10-22T00:40:42.792Z,10.75
2017-10-22T00:40:46.874Z,10.78
2017-10-22T00:40:50.948Z,10.76
2017-10-22T00:40:55.026Z,10.73
2017-10-22T00:40:59.235Z,10.84
2017-10-22T00:41:03.199Z,10.73
2017-10-22T00:41:07.147Z,10.83
2017-10-22T00:41:11.246Z,10.75
2017-10-22T00:41:15.717Z,10.8
2017-10-22T00:41:19.812Z,10.8
2017-10-22T00:41:23.765Z,10.75
2017-10-22T00:41:27.583Z,10.75
2017-10-22T00:41:31.534Z,10.8
2017-10-22T00:41:35.353Z,10.7
2017-10-22T00:41:39.572Z,10.84
2017-10-22T00:41:43.649Z,10.7
2017-10-22T00:41:47.594Z,10.68
2017-10-22T00:41:51.546Z,10.72
2017-10-22T00:41:55.507Z,10.76
2017-10-22T00:41:59.583Z,10.78
2017-10-22T00:42:03.685Z,10.68
2017-10-22T00:42:07.778Z,10.8
2017-10-22T00:42:11.866Z,10.8
2017-10-22T00:42:16.219Z,10.78
2017-10-22T00:42:20.303Z,10.69
2017-10-22T00:42:24.257Z,10.7
2017-10-22T00:42:28.336Z,10.73
2017-10-22T00:42:32.553Z,10.75
2017-10-22T00:42:36.633Z,10.8
2017-10-22T00:42:40.724Z,10.76
2017-10-22T00:42:44.796Z,10.73
2017-10-22T00:42:48.738Z,10.78
2017-10-22T00:42:52.815Z,10.7
2017-10-22T00:42:56.500Z,10.76
2017-10-22T00:43:00.579Z,10.81
2017-10-22T00:43:04.970Z,10.78
2017-10-22T00:43:09.442Z,10.76
2017-10-22T00:43:13.519Z,10.7
2017-10-22T00:43:17.469Z,10.72
2017-10-22T00:43:21.564Z,10.7
2017-10-22T00:43:25.508Z,10.73
2017-10-22T00:43:29.721Z,10.7
2017-10-22T00:43:33.672Z,10.8
2017-10-22T00:43:37.619Z,10.7
2017-10-22T00:43:41.702Z,10.72
2017-10-22T00:43:45.778Z,10.8
2017-10-22T00:43:49.862Z,10.81
2017-10-22T00:43:53.675Z,10.73
2017-10-22T00:43:57.757Z,10.7
2017-10-22T00:44:01.573Z,10.72
2017-10-22T00:44:05.954Z,10.78
2017-10-22T00:44:10.031Z,10.81
2017-10-22T00:44:14.382Z,10.68
2017-10-22T00:44:18.199Z,10.73
2017-10-22T00:44:22.011Z,10.73
2017-10-22T00:44:26.227Z,10.7
2017-10-22T00:44:30.575Z,10.7
2017-10-22T00:44:34.661Z,10.68
2017-10-22T00:44:38.740Z,10.72
2017-10-22T00:44:42.573Z,10.75
2017-10-22T00:44:46.655Z,10.76
2017-10-22T00:44:50.864Z,10.73
2017-10-22T00:44:54.953Z,10.83
2017-10-22T00:44:59.178Z,10.73
2017-10-22T00:45:03.330Z,10.68
2017-10-22T00:45:07.407Z,10.76
2017-10-22T00:45:11.508Z,10.81
2017-10-22T00:45:15.724Z,10.75
2017-10-22T00:45:19.804Z,10.78
2017-10-22T00:45:24.015Z,10.76
2017-10-22T00:45:27.967Z,10.69
2017-10-22T00:45:32.173Z,10.69
2017-10-22T00:45:36.522Z,10.76
2017-10-22T00:45:40.897Z,10.69
2017-10-22T00:45:45.105Z,10.72
2017-10-22T00:45:49.316Z,10.73
2017-10-22T00:45:53.669Z,10.84
2017-10-22T00:45:57.884Z,10.76
2017-10-22T00:46:02.268Z,10.75
2017-10-22T00:46:06.086Z,10.81
2017-10-22T00:46:10.037Z,10.7
2017-10-22T00:46:14.251Z,10.84
2017-10-22T00:46:18.465Z,10.76
2017-10-22T00:46:22.684Z,10.75
2017-10-22T00:46:26.765Z,10.72
2017-10-22T00:46:30.710Z,10.72
2017-10-22T00:46:34.528Z,10.75
2017-10-22T00:46:39.008Z,10.68
2017-10-22T00:46:43.359Z,10.84
2017-10-22T00:46:47.194Z,10.8
2017-10-22T00:46:51.021Z,10.72
2017-10-22T00:46:54.827Z,10.81
2017-10-22T00:46:59.171Z,10.8
2017-10-22T00:47:03.120Z,10.73
2017-10-22T00:47:06.946Z,10.7
2017-10-22T00:47:10.885Z,10.68
2017-10-22T00:47:14.704Z,10.8
2017-10-22T00:47:18.659Z,10.72
2017-10-22T00:47:22.606Z,10.76
2017-10-22T00:47:26.295Z,10.76
2017-10-22T00:47:30.243Z,10.66
2017-10-22T00:47:33.930Z,10.81
2017-10-22T00:47:38.006Z,10.76
2017-10-22T00:47:41.826Z,10.73
2017-10-22T00:47:45.650Z,10.75
2017-10-22T00:47:49.332Z,10.76
2017-10-22T00:47:53.276Z,10.73
2017-10-22T00:47:57.092Z,10.69
2017-10-22T00:48:00.912Z,10.69
2017-10-22T00:48:04.990Z,10.76
2017-10-22T00:48:08.799Z,10.7
2017-10-22T00:48:12.886Z,10.8
2017-10-22T00:48:16.832Z,10.8
2017-10-22T00:48:20.773Z,10.72
2017-10-22T00:48:24.719Z,10.72
2017-10-22T00:48:28.667Z,10.76
2017-10-22T00:48:32.615Z,10.78
2017-10-22T00:48:36.298Z,10.7
2017-10-22T00:48:40.508Z,10.7
2017-10-22T00:48:44.592Z,10.68
2017-10-22T00:48:48.810Z,10.73
2017-10-22T00:48:52.893Z,10.7
2017-10-22T00:48:56.973Z,10.76
2017-10-22T00:49:00.653Z,10.7
2017-10-22T00:49:04.739Z,10.73
2017-10-22T00:49:08.695Z,10.73
2017-10-22T00:49:12.790Z,10.72
2017-10-22T00:49:16.878Z,10.68
2017-10-22T00:49:20.955Z,10.76
2017-10-22T00:49:24.900Z,10.7
2017-10-22T00:49:28.850Z,10.76
2017-10-22T00:49:33.062Z,10.7
2017-10-22T00:49:36.871Z,10.76
2017-10-22T00:49:40.948Z,10.7
2017-10-22T00:49:44.896Z,10.68
2017-10-22T00:49:48.970Z,10.72
2017-10-22T00:49:53.058Z,10.76
2017-10-22T00:49:57.003Z,10.7
2017-10-22T00:50:00.817Z,10.76
2017-10-22T00:50:04.766Z,10.75
2017-10-22T00:50:08.850Z,10.72
2017-10-22T00:50:13.082Z,10.73
2017-10-22T00:50:17.166Z,10.72
2017-10-22T00:50:21.256Z,10.75
2017-10-22T00:50:25.206Z,10.68
2017-10-22T00:50:29.560Z,10.76
2017-10-22T00:50:33.508Z,10.68
2017-10-22T00:50:37.326Z,10.76
2017-10-22T00:50:41.278Z,10.7
2017-10-22T00:50:45.245Z,10.72
2017-10-22T00:50:49.464Z,10.68
2017-10-22T00:50:53.407Z,10.72
2017-10-22T00:50:57.217Z,10.72
2017-10-22T00:51:01.424Z,10.7
2017-10-22T00:51:05.528Z,10.76
2017-10-22T00:51:09.742Z,10.66
2017-10-22T00:51:13.826Z,10.7
2017-10-22T00:51:17.776Z,10.68
2017-10-22T00:51:21.603Z,10.66
2017-10-22T00:51:25.730Z,10.78
2017-10-22T00:51:29.936Z,10.76
2017-10-22T00:51:33.883Z,10.73
2017-10-22T00:51:37.828Z,10.7
2017-10-22T00:51:41.780Z,10.73
2017-10-22T00:51:45.732Z,10.8
2017-10-22T00:51:49.816Z,10.78
2017-10-22T00:51:53.630Z,10.8
2017-10-22T00:51:57.579Z,10.8
2017-10-22T00:52:01.792Z,10.68
2017-10-22T00:52:06.147Z,10.7
2017-10-22T00:52:10.225Z,10.73
2017-10-22T00:52:14.170Z,10.76
2017-10-22T00:52:18.388Z,10.76
2017-10-22T00:52:22.087Z,10.72
2017-10-22T00:52:26.033Z,10.8
2017-10-22T00:52:30.248Z,10.75
2017-10-22T00:52:34.462Z,10.75
2017-10-22T00:52:38.671Z,10.81
2017-10-22T00:52:42.751Z,10.8
2017-10-22T00:52:46.832Z,10.7
2017-10-22T00:52:50.782Z,10.78
2017-10-22T00:52:55.002Z,10.8